Terminal Aerodrome Forecast
Issued by NWS

Home | Current Version | Previous Version | Text Only | Print | Product List | Glossary On
Versions: 1 2 3 4 5 6 7 8 9 10 11 12 13 14 15 16 17 18
000
FTUS43 KGRB 231140
TAFRHI
TAF
KRHI 231140Z 2312/2412 21005KT P6SM BKN100
     FM240000 32005KT P6SM -RA OVC040
     FM240300 33008KT 6SM -RA OVC022
     FM240400 33009KT 4SM -RA OVC012
     FM240600 33010G20KT 4SM -RA OVC009
     FM240800 33014G25KT 5SM -RA OVC011=

USA.gov is the U.S. government's official web portal to all federal, state and local government web resources and services.